LA HONDA (LAH)

Elevation: 425' · SAN GREGORIO CR basin · Operator: CAL FIRE

Query executed Saturday at 15:26:41   clock

Provisional data, subject to change.
Select a sensor type for a plot of data.

Earlier

Date   /   Time   RAIN     TEMP     REL HUM     FUEL MS     FUEL TP     WIND SP     WIND DR     PEAK WS     PEAK WD     SOLAR R     BAT VOL    
(PST)INCHES   DEG F   %   %   DEG F   MPH   DEG   MPH   DEG   W/M^2   VOLTS  
11/21/2014 15:00 3.47 58 81 26 60 2 305 7 297 120.00 13.9
11/21/2014 16:00 3.47 56 86 26 56 1 289 5 247 52.00 13.6
11/21/2014 17:00 3.47 55 89 26 54 0 144 1 26 12.00 13.3
11/21/2014 18:00 3.47 54 92 26 53 0 101 1 69 0.00 13.2
11/21/2014 19:00 3.47 53 95 26 52 0 234 3 130 0.00 13.1
11/21/2014 20:00 3.47 52 96 26 52 4 87 5 103 0.00 13.0
11/21/2014 21:00 3.47 52 95 26 51 2 98 5 81 0.00 12.9
11/21/2014 22:00 3.47 51 95 26 50 3 93 5 70 0.00 12.8
11/21/2014 23:00 3.47 51 96 26 49 3 73 6 86 0.00 12.8
11/22/2014 00:00 3.47 50 97 26 50 3 98 6 79 0.00 12.8
11/22/2014 01:00 3.47 51 97 26 51 3 87 5 75 0.00 12.8
11/22/2014 02:00 3.47 54 88 26 52 2 75 6 72 0.00 12.8
11/22/2014 03:00 3.47 54 87 26 53 2 92 9 96 0.00 12.8
11/22/2014 04:00 3.50 54 93 26 53 4 78 11 128 0.00 12.8
11/22/2014 05:00 3.51 54 96 26 54 5 46 9 74 0.00 12.7
11/22/2014 06:00 3.53 54 97 26 54 3 69 7 79 0.00 12.7
11/22/2014 07:00 3.56 55 97 26 54 4 67 9 120 0.00 12.7
11/22/2014 08:00 3.65 55 97 26 55 3 75 7 103 7.00 12.7
11/22/2014 09:00 3.83 55 97 26 55 4 98 7 81 23.00 12.7
11/22/2014 10:00 3.98 57 97 26 57 3 122 8 110 36.00 12.8
11/22/2014 11:00 4.14 60 98 26 61 6 249 15 230 52.00 13.0
11/22/2014 12:00 4.15 61 98 26 64 4 248 15 227 103.00 13.8
11/22/2014 13:00 4.15 60 94 26 62 2 282 11 294 170.00 13.8
11/22/2014 14:00 4.15 59 93 26 62 2 256 9 293 118.00 13.8
11/22/2014 15:00 4.15 61 86 26 63 2 244 10 244 172.00 13.8

Later | Latest

Warning! This data is preliminary and subject to revision.

Show LAH Map | 24 Hours LAH Data | Plot all LAH Sensors | Daily LAH Data | LAH Info